createdAt,value
2022-08-20T00:00:36.174Z,99863.97
2022-08-20T00:05:38.671Z,99853.78
2022-08-20T00:10:43.898Z,99853.84
2022-08-20T00:15:48.549Z,99855.44
2022-08-20T00:20:51.985Z,99849.38
2022-08-20T00:25:54.392Z,99852.84
2022-08-20T00:30:55.283Z,99852.25
2022-08-20T00:35:57.478Z,99854.94
2022-08-20T00:41:00.241Z,99848.72
2022-08-20T00:46:02.564Z,99851.34
2022-08-20T00:51:06.718Z,99846.31
2022-08-20T00:56:10.576Z,99859.28
2022-08-20T01:01:11.618Z,99861.81
2022-08-20T01:06:12.239Z,99854.84
2022-08-20T01:11:16.565Z,99856.78
2022-08-20T01:16:23.663Z,99856.78
2022-08-20T01:21:28.158Z,99848.38
2022-08-20T01:26:35.210Z,99857.84
2022-08-20T01:31:38.816Z,99863.00
2022-08-20T01:36:46.350Z,99863.69
2022-08-20T01:42:04.309Z,99868.38
2022-08-20T01:47:16.420Z,99865.06
2022-08-20T01:52:25.873Z,99871.19
2022-08-20T01:57:29.205Z,99871.09
2022-08-20T02:02:29.824Z,99866.13
2022-08-20T02:07:32.346Z,99861.72
2022-08-20T02:12:35.182Z,99869.25
2022-08-20T02:17:36.331Z,99872.25
2022-08-20T02:22:40.539Z,99870.56
2022-08-20T02:27:49.463Z,99864.50
2022-08-20T02:32:50.258Z,99865.94
2022-08-20T02:37:57.264Z,99870.56
2022-08-20T02:43:00.284Z,99868.50
2022-08-20T02:48:00.884Z,99857.44
2022-08-20T02:53:01.482Z,99856.06
2022-08-20T02:58:03.462Z,99858.88
2022-08-20T03:03:04.239Z,99848.84
2022-08-20T03:08:07.065Z,99847.19
2022-08-20T03:13:12.305Z,99841.53
2022-08-20T03:18:13.618Z,99837.25
2022-08-20T03:23:17.198Z,99839.09
2022-08-20T03:28:19.898Z,99840.78
2022-08-20T03:33:21.299Z,99851.16
2022-08-20T03:38:32.635Z,99849.63
2022-08-20T03:43:35.561Z,99849.91
2022-08-20T03:48:36.369Z,99854.19
2022-08-20T03:53:37.058Z,99862.66
2022-08-20T03:58:39.199Z,99863.06
2022-08-20T04:03:39.813Z,99862.13
2022-08-20T04:08:41.541Z,99859.84
2022-08-20T04:13:43.534Z,99860.47
2022-08-20T04:19:01.647Z,99858.69
2022-08-20T04:24:04.452Z,99870.00
2022-08-20T04:29:06.390Z,99849.78
2022-08-20T04:34:08.017Z,99854.88
2022-08-20T04:39:08.652Z,99861.97
2022-08-20T04:44:11.759Z,99866.19
2022-08-20T04:49:12.788Z,99870.78
2022-08-20T04:54:14.414Z,99881.06
2022-08-20T04:59:16.494Z,99879.38
2022-08-20T05:04:17.097Z,99877.72
2022-08-20T05:09:17.696Z,99874.19
2022-08-20T05:14:19.872Z,99877.72
2022-08-20T05:19:25.747Z,99878.00
2022-08-20T05:24:27.276Z,99881.69
2022-08-20T05:29:29.632Z,99882.84
2022-08-20T05:34:30.250Z,99883.94
2022-08-20T05:39:35.396Z,99889.13
2022-08-20T05:44:39.338Z,99887.72
2022-08-20T05:49:40.318Z,99889.63
2022-08-20T05:54:40.928Z,99893.75
2022-08-20T05:59:42.862Z,99894.75
2022-08-20T06:04:43.473Z,99903.03
2022-08-20T06:09:44.579Z,99913.25
2022-08-20T06:14:47.406Z,99912.97
2022-08-20T06:19:48.792Z,99913.59
2022-08-20T06:24:50.416Z,99910.56
2022-08-20T06:29:53.346Z,99921.41
2022-08-20T06:34:54.225Z,99930.69
2022-08-20T06:39:55.094Z,99937.50
2022-08-20T06:44:59.568Z,99944.66
2022-08-20T06:50:00.263Z,99948.31
2022-08-20T06:55:01.244Z,99951.78
2022-08-20T07:00:03.305Z,99961.94
2022-08-20T07:05:05.210Z,99957.88
2022-08-20T07:10:07.465Z,99957.03
2022-08-20T07:15:12.163Z,99956.25
2022-08-20T07:20:16.055Z,99955.34
2022-08-20T07:25:19.681Z,99964.91
2022-08-20T07:30:56.229Z,99973.78
2022-08-20T07:35:58.878Z,99970.78
2022-08-20T07:41:01.913Z,99970.63
2022-08-20T07:46:07.502Z,99975.81
2022-08-20T07:51:11.415Z,99976.47
2022-08-20T07:56:14.563Z,99985.66
2022-08-20T08:01:17.312Z,99990.41
2022-08-20T08:06:29.554Z,99987.31
2022-08-20T08:11:33.455Z,99983.56
2022-08-20T08:16:35.585Z,100005.34
2022-08-20T08:21:36.292Z,100005.13
2022-08-20T08:26:36.986Z,100006.72
2022-08-20T08:31:40.945Z,100014.44
2022-08-20T08:36:44.291Z,100014.03
2022-08-20T08:41:50.046Z,100018.69
2022-08-20T08:46:56.527Z,100019.50
2022-08-20T08:52:04.472Z,100023.91
2022-08-20T08:57:08.197Z,100025.56
2022-08-20T09:02:20.049Z,100021.75
2022-08-20T09:07:20.953Z,100031.22
2022-08-20T09:12:23.659Z,100034.81
2022-08-20T09:17:26.326Z,100026.56
2022-08-20T09:22:26.953Z,100021.66
2022-08-20T09:27:27.531Z,100021.03
2022-08-20T09:32:29.442Z,100022.88
2022-08-20T09:37:36.685Z,100024.72
2022-08-20T09:42:41.634Z,100023.78
2022-08-20T09:47:55.251Z,100029.28
2022-08-20T09:53:00.525Z,100027.44
2022-08-20T09:58:02.486Z,100024.63
2022-08-20T10:03:04.474Z,100024.56
2022-08-20T10:08:06.595Z,100037.41
2022-08-20T10:13:07.249Z,100038.19
2022-08-20T10:18:12.282Z,100032.50
2022-08-20T10:23:13.246Z,100039.31
2022-08-20T10:28:13.857Z,100044.34
2022-08-20T10:33:15.835Z,100049.78
2022-08-20T10:38:16.440Z,100044.28
2022-08-20T10:43:17.045Z,100058.06
2022-08-20T10:48:21.555Z,100052.84
2022-08-20T10:53:22.381Z,100050.88
2022-08-20T10:58:23.124Z,100049.03
2022-08-20T11:03:25.994Z,100051.50
2022-08-20T11:08:34.261Z,100061.81
2022-08-20T11:13:38.186Z,100055.91
2022-08-20T11:18:43.758Z,100063.81
2022-08-20T11:23:47.662Z,100061.06
2022-08-20T11:28:48.566Z,100068.84
2022-08-20T11:33:50.807Z,100078.41
2022-08-20T11:38:51.819Z,100076.72
2022-08-20T11:44:10.740Z,100084.50
2022-08-20T11:49:15.496Z,100087.75
2022-08-20T11:54:16.549Z,100100.28
2022-08-20T11:59:18.337Z,100096.75
2022-08-20T12:04:21.313Z,100102.88
2022-08-20T12:09:26.368Z,100096.81
2022-08-20T12:14:27.830Z,100101.09
2022-08-20T12:19:30.189Z,100104.84
2022-08-20T12:24:31.166Z,100109.13
2022-08-20T12:29:34.509Z,100103.84
2022-08-20T12:34:40.788Z,100110.91
2022-08-20T12:39:44.306Z,100110.09
2022-08-20T12:44:45.503Z,100111.03
2022-08-20T12:49:51.430Z,100124.09
2022-08-20T12:54:52.439Z,100114.72
2022-08-20T12:59:53.452Z,100106.06
2022-08-20T13:04:55.728Z,100105.13
2022-08-20T13:09:59.594Z,100105.13
2022-08-20T13:15:00.210Z,100112.81
2022-08-20T13:20:02.274Z,100113.56
2022-08-20T13:25:02.893Z,100118.47
2022-08-20T13:30:03.517Z,100115.81
2022-08-20T13:35:06.681Z,100113.13
2022-08-20T13:40:09.172Z,100121.38
2022-08-20T13:45:10.921Z,100131.78
2022-08-20T13:50:16.590Z,100127.19
2022-08-20T13:55:22.132Z,100127.75
2022-08-20T14:00:31.095Z,100133.66
2022-08-20T14:05:34.435Z,100129.44
2022-08-20T14:10:35.486Z,100124.31
2022-08-20T14:15:37.482Z,100121.44
2022-08-20T14:20:39.729Z,100126.66
2022-08-20T14:25:42.063Z,100130.53
2022-08-20T14:30:42.877Z,100139.94
2022-08-20T14:35:44.807Z,100139.31
2022-08-20T14:40:45.531Z,100144.94
2022-08-20T14:45:46.309Z,100142.41
2022-08-20T14:50:48.452Z,100143.19
2022-08-20T14:55:49.240Z,100139.16
2022-08-20T15:00:50.396Z,100133.72
2022-08-20T15:05:52.397Z,100128.16
2022-08-20T15:10:55.070Z,100132.75
2022-08-20T15:15:55.946Z,100131.66
2022-08-20T15:20:58.220Z,100129.25
2022-08-20T15:25:58.830Z,100135.16
2022-08-20T15:30:59.461Z,100135.09
2022-08-20T15:36:01.564Z,100131.97
2022-08-20T15:41:02.919Z,100138.69
2022-08-20T15:46:06.178Z,100140.66
2022-08-20T15:51:24.141Z,100140.28
2022-08-20T15:56:42.982Z,100131.19
2022-08-20T16:01:54.269Z,100141.38
2022-08-20T16:07:03.093Z,100153.28
2022-08-20T16:12:10.212Z,100143.44
2022-08-20T16:17:15.852Z,100144.97
2022-08-20T16:22:20.180Z,100146.19
2022-08-20T16:27:29.372Z,100139.94
2022-08-20T16:32:37.673Z,100142.53
2022-08-20T16:37:48.042Z,100148.38
2022-08-20T16:42:52.200Z,100153.69
2022-08-20T16:47:55.491Z,100157.97
2022-08-20T16:52:57.624Z,100165.06
2022-08-20T16:57:58.699Z,100166.06
2022-08-20T17:03:01.131Z,100168.22
2022-08-20T17:08:07.118Z,100174.59
2022-08-20T17:13:23.856Z,100176.75
2022-08-20T17:18:32.212Z,100172.47
2022-08-20T17:23:54.643Z,100186.34
2022-08-20T17:29:02.549Z,100196.88
2022-08-20T17:34:03.517Z,100194.47
2022-08-20T17:39:15.501Z,100197.38
2022-08-20T17:44:23.669Z,100201.09
2022-08-20T17:49:34.865Z,100201.03
2022-08-20T17:54:40.216Z,100206.28
2022-08-20T17:59:59.811Z,100208.66
2022-08-20T18:05:10.245Z,100217.88
2022-08-20T18:10:19.394Z,100218.66
2022-08-20T18:15:24.798Z,100217.88
2022-08-20T18:20:40.577Z,100212.19
2022-08-20T18:25:46.725Z,100211.13
2022-08-20T18:30:50.303Z,100223.84
2022-08-20T18:35:51.201Z,100217.63
2022-08-20T18:40:55.240Z,100215.09
2022-08-20T18:45:56.105Z,100218.66
2022-08-20T18:50:58.611Z,100228.41
2022-08-20T18:56:06.942Z,100229.00
2022-08-20T19:01:13.608Z,100237.78
2022-08-20T19:06:26.028Z,100238.59
2022-08-20T19:11:46.706Z,100248.91
2022-08-20T19:16:51.721Z,100240.22
2022-08-20T19:21:53.384Z,100242.03
2022-08-20T19:26:58.823Z,100241.91
2022-08-20T19:32:01.046Z,100237.28
2022-08-20T19:37:28.177Z,100240.75
2022-08-20T19:42:30.212Z,100236.22
2022-08-20T19:47:34.630Z,100224.50
2022-08-20T19:52:51.617Z,100227.06
2022-08-20T19:57:57.021Z,100233.06
2022-08-20T20:02:57.935Z,100231.13
2022-08-20T20:07:59.784Z,100235.59
2022-08-20T20:13:08.780Z,100226.66
2022-08-20T20:18:10.558Z,100221.72
2022-08-20T20:23:15.890Z,100220.88
2022-08-20T20:28:22.637Z,100221.00
2022-08-20T20:33:30.743Z,100218.41
2022-08-20T20:38:31.454Z,100220.19
2022-08-20T20:43:36.731Z,100215.09
2022-08-20T20:48:45.982Z,100204.84
2022-08-20T20:53:54.376Z,100203.88
2022-08-20T20:58:57.617Z,100197.13
2022-08-20T21:03:59.961Z,100192.19
2022-08-20T21:09:01.388Z,100194.00
2022-08-20T21:14:03.291Z,100185.31
2022-08-20T21:19:06.682Z,100169.78
2022-08-20T21:24:08.688Z,100167.28
2022-08-20T21:29:14.198Z,100166.44
2022-08-20T21:34:16.560Z,100161.63
2022-08-20T21:39:17.716Z,100157.22
2022-08-20T21:44:22.807Z,100157.22
2022-08-20T21:49:27.194Z,100156.25
2022-08-20T21:54:28.252Z,100155.00
2022-08-20T21:59:30.519Z,100146.16
2022-08-20T22:04:34.891Z,100149.75
2022-08-20T22:09:38.292Z,100153.03
2022-08-20T22:14:40.239Z,100153.75
2022-08-20T22:19:40.958Z,100146.94
2022-08-20T22:24:41.641Z,100155.59
2022-08-20T22:29:43.577Z,100157.41
2022-08-20T22:34:44.266Z,100156.56
2022-08-20T22:39:44.912Z,100160.72
2022-08-20T22:44:46.835Z,100158.75
2022-08-20T22:49:47.508Z,100165.72
2022-08-20T22:54:48.190Z,100161.28
2022-08-20T22:59:53.156Z,100168.97
2022-08-20T23:04:54.189Z,100163.50
2022-08-20T23:09:54.827Z,100152.97
2022-08-20T23:14:56.747Z,100168.41
2022-08-20T23:19:57.354Z,100164.91
2022-08-20T23:25:00.528Z,100158.72
2022-08-20T23:30:02.731Z,100156.97
2022-08-20T23:35:03.336Z,100148.94
2022-08-20T23:40:05.493Z,100152.44
2022-08-20T23:45:08.903Z,100151.66
2022-08-20T23:50:11.842Z,100159.59
2022-08-20T23:55:13.393Z,100156.28
